Etusivu
METAR-TAF:

METAR-TAF

Lentoasemat :

Ulan-Ude, Venäjä

Leveyspiiri: 51-50N, Pituuspiiri: 107-36E, korkeus merenpinnasta: 510 m

Tämänhetkinen sää

Tämä raportti tehtiin 36 minuuttia sitten, kello 02.30 UTC
Tuuli 12 kn koillisesta, vaihdellen pohjoisen ja idän välillä
Lämpötila 18°C
Kosteus 34%
Ilmanpaine 1016 hPa
Näkyvyys 10 km tai enemmän

METAR: UIUU 220230Z 04006MPS 360V090 9999 NSC 18/02 Q1016 R08/60D NOSIG RMK QFE717/0956

Aika: 11:06 (03:06 UTC)

Sääennuste

Tämä raportti tehtiin 1 tunti ja 6 minuuttia sitten, kello 02.00 UTC
Ennuste voimassa 22. päivästä klo 03 UTC - 23. päivään klo 03 UTC
Tuuli 12 kn koillisesta puuskistuen 23 kn:hen
Näkyvyys 10 km tai enemmän
Hajanaisia pilviä 4000 ft:n korkeudessa, Cumulonimbus.
Ajoittain
22. päivästä klo 03 UTC - 23. päivään klo 03 UTC
Tuuli 6 kn pohjoisen/luoteesta puuskistuen 16 kn:hen

TAF: UIUU 220200Z 2203/2303 05006G12MPS 9999 SCT040CB TEMPO 2203/2303 34003G08MPS

Säähavainnot ja -ennusteet yli 4000 lentoasemalta (METAR- ja TAF-raportit).

Käytössä olevat sääasemat on merkitty karttaan keltaisilla ja punaisilla pisteillä.

Aseta hiiri pisteen päälle nähdäksesi sääaseman nimen.

Klikkaa sitten nähdäksesi säähavainnot ja -ennusteet.

Kartan vaihtaminen: klikkaa mustalla rastilla varustettuja vihreitä pisteitä, niin voit zoomata sisään; viivalla varustettua vihreää pistettä, niin voit zoomata ulos tai vihreitä nuolia, niin pääset viereisille kartoille.


METAR-TAF: